<?xml version="1.0" encoding="UTF-8" standalone="no" ?>
<gpx xmlns="http://www.topografix.com/GPX/1/1" xmlns:xsi="http://www.w3.org/2001/XMLSchema-instance" xsi:schemaLocation="http://www.topografix.com/GPX/1/1 http://www.topografix.com/GPX/1/1/gpx.xsd" version="1.1" creator="VisuGPX - https://www.visugpx.com">
  <metadata>
    <name>Les Bouillouses, Pic de la Comète, Les Camporells</name>
    <desc><![CDATA[TOPO sur notre site:
https://manager.e-monsite.com/cms/pages/update/page/5399ef1227064ecfa41c39d0]]></desc>
  </metadata>
  <trk>
    <name><![CDATA[3731084-Le Pic de la Comète]]></name>
    <extensions>
      <line xmlns="http://www.topografix.com/GPX/gpx_style/0/2">
        <color>0000FF</color>
        <width>4</width>
      </line>
    </extensions>
    <trkseg>
      <trkpt lat="42.55978" lon="2.00357">
        <ele>2014</ele>
        <time>2022-07-01T12:21:57Z</time>
      </trkpt>
      <trkpt lat="42.5598" lon="2.00352">
        <ele>2014</ele>
        <time>2022-07-01T12:22:03Z</time>
      </trkpt>
      <trkpt lat="42.56002" lon="2.00366">
        <ele>2015</ele>
        <time>2022-07-01T12:22:35Z</time>
      </trkpt>
      <trkpt lat="42.56011" lon="2.00361">
        <ele>2016</ele>
        <time>2022-07-01T12:22:48Z</time>
      </trkpt>
      <trkpt lat="42.56016" lon="2.00353">
        <ele>2016</ele>
        <time>2022-07-01T12:22:58Z</time>
      </trkpt>
      <trkpt lat="42.5602" lon="2.00312">
        <ele>2014</ele>
        <time>2022-07-01T12:23:39Z</time>
      </trkpt>
      <trkpt lat="42.56032" lon="2.00277">
        <ele>2013</ele>
        <time>2022-07-01T12:24:17Z</time>
      </trkpt>
      <trkpt lat="42.55997" lon="2.0004">
        <ele>2007</ele>
        <time>2022-07-01T12:28:14Z</time>
      </trkpt>
      <trkpt lat="42.55985" lon="2">
        <ele>2008</ele>
        <time>2022-07-01T12:28:57Z</time>
      </trkpt>
      <trkpt lat="42.55982" lon="1.99943">
        <ele>2014</ele>
        <time>2022-07-01T12:29:53Z</time>
      </trkpt>
      <trkpt lat="42.55971" lon="1.999">
        <ele>2017</ele>
        <time>2022-07-01T12:30:38Z</time>
      </trkpt>
      <trkpt lat="42.55979" lon="1.9988">
        <ele>2018</ele>
        <time>2022-07-01T12:31:00Z</time>
      </trkpt>
      <trkpt lat="42.56041" lon="1.99806">
        <ele>2021</ele>
        <time>2022-07-01T12:32:50Z</time>
      </trkpt>
      <trkpt lat="42.56076" lon="1.99787">
        <ele>2022</ele>
        <time>2022-07-01T12:33:41Z</time>
      </trkpt>
      <trkpt lat="42.56086" lon="1.99769">
        <ele>2025</ele>
        <time>2022-07-01T12:34:03Z</time>
      </trkpt>
      <trkpt lat="42.56166" lon="1.99729">
        <ele>2026</ele>
        <time>2022-07-01T12:35:57Z</time>
      </trkpt>
      <trkpt lat="42.56219" lon="1.99685">
        <ele>2031</ele>
        <time>2022-07-01T12:37:20Z</time>
      </trkpt>
      <trkpt lat="42.56231" lon="1.99692">
        <ele>2027</ele>
        <time>2022-07-01T12:37:37Z</time>
      </trkpt>
      <trkpt lat="42.56249" lon="1.99687">
        <ele>2026</ele>
        <time>2022-07-01T12:38:01Z</time>
      </trkpt>
      <trkpt lat="42.56288" lon="1.99661">
        <ele>2029</ele>
        <time>2022-07-01T12:38:59Z</time>
      </trkpt>
      <trkpt lat="42.56304" lon="1.99659">
        <ele>2028</ele>
        <time>2022-07-01T12:39:21Z</time>
      </trkpt>
      <trkpt lat="42.56345" lon="1.99632">
        <ele>2030</ele>
        <time>2022-07-01T12:40:22Z</time>
      </trkpt>
      <trkpt lat="42.56356" lon="1.99632">
        <ele>2028</ele>
        <time>2022-07-01T12:40:36Z</time>
      </trkpt>
      <trkpt lat="42.56404" lon="1.9958">
        <ele>2033</ele>
        <time>2022-07-01T12:41:58Z</time>
      </trkpt>
      <trkpt lat="42.56413" lon="1.99555">
        <ele>2037</ele>
        <time>2022-07-01T12:42:26Z</time>
      </trkpt>
      <trkpt lat="42.56433" lon="1.99534">
        <ele>2039</ele>
        <time>2022-07-01T12:42:59Z</time>
      </trkpt>
      <trkpt lat="42.5644" lon="1.99532">
        <ele>2038</ele>
        <time>2022-07-01T12:43:09Z</time>
      </trkpt>
      <trkpt lat="42.56463" lon="1.99544">
        <ele>2033</ele>
        <time>2022-07-01T12:43:42Z</time>
      </trkpt>
      <trkpt lat="42.56477" lon="1.99557">
        <ele>2029</ele>
        <time>2022-07-01T12:44:04Z</time>
      </trkpt>
      <trkpt lat="42.56505" lon="1.99561">
        <ele>2026</ele>
        <time>2022-07-01T12:44:42Z</time>
      </trkpt>
      <trkpt lat="42.56533" lon="1.99552">
        <ele>2026</ele>
        <time>2022-07-01T12:45:20Z</time>
      </trkpt>
      <trkpt lat="42.56553" lon="1.99564">
        <ele>2023</ele>
        <time>2022-07-01T12:45:50Z</time>
      </trkpt>
      <trkpt lat="42.56566" lon="1.99565">
        <ele>2022</ele>
        <time>2022-07-01T12:46:07Z</time>
      </trkpt>
      <trkpt lat="42.56579" lon="1.99553">
        <ele>2024</ele>
        <time>2022-07-01T12:46:28Z</time>
      </trkpt>
      <trkpt lat="42.56604" lon="1.99552">
        <ele>2022</ele>
        <time>2022-07-01T12:47:01Z</time>
      </trkpt>
      <trkpt lat="42.56643" lon="1.9954">
        <ele>2020</ele>
        <time>2022-07-01T12:47:55Z</time>
      </trkpt>
      <trkpt lat="42.56663" lon="1.99513">
        <ele>2024</ele>
        <time>2022-07-01T12:48:32Z</time>
      </trkpt>
      <trkpt lat="42.56677" lon="1.9947">
        <ele>2030</ele>
        <time>2022-07-01T12:49:19Z</time>
      </trkpt>
      <trkpt lat="42.56699" lon="1.99456">
        <ele>2030</ele>
        <time>2022-07-01T12:49:51Z</time>
      </trkpt>
      <trkpt lat="42.56717" lon="1.99475">
        <ele>2024</ele>
        <time>2022-07-01T12:50:21Z</time>
      </trkpt>
      <trkpt lat="42.56732" lon="1.99471">
        <ele>2023</ele>
        <time>2022-07-01T12:50:42Z</time>
      </trkpt>
      <trkpt lat="42.56761" lon="1.99418">
        <ele>2033</ele>
        <time>2022-07-01T12:51:47Z</time>
      </trkpt>
      <trkpt lat="42.56811" lon="1.9943">
        <ele>2032</ele>
        <time>2022-07-01T12:52:54Z</time>
      </trkpt>
      <trkpt lat="42.56829" lon="1.99445">
        <ele>2030</ele>
        <time>2022-07-01T12:53:23Z</time>
      </trkpt>
      <trkpt lat="42.56864" lon="1.99445">
        <ele>2027</ele>
        <time>2022-07-01T12:54:09Z</time>
      </trkpt>
      <trkpt lat="42.56882" lon="1.99437">
        <ele>2028</ele>
        <time>2022-07-01T12:54:35Z</time>
      </trkpt>
      <trkpt lat="42.56922" lon="1.99404">
        <ele>2031</ele>
        <time>2022-07-01T12:55:37Z</time>
      </trkpt>
      <trkpt lat="42.56937" lon="1.99398">
        <ele>2029</ele>
        <time>2022-07-01T12:55:58Z</time>
      </trkpt>
      <trkpt lat="42.5695" lon="1.994">
        <ele>2026</ele>
        <time>2022-07-01T12:56:15Z</time>
      </trkpt>
      <trkpt lat="42.5698" lon="1.99372">
        <ele>2027</ele>
        <time>2022-07-01T12:57:04Z</time>
      </trkpt>
      <trkpt lat="42.56986" lon="1.99359">
        <ele>2029</ele>
        <time>2022-07-01T12:57:19Z</time>
      </trkpt>
      <trkpt lat="42.57011" lon="1.99345">
        <ele>2029</ele>
        <time>2022-07-01T12:57:55Z</time>
      </trkpt>
      <trkpt lat="42.57065" lon="1.99291">
        <ele>2031</ele>
        <time>2022-07-01T12:59:25Z</time>
      </trkpt>
      <trkpt lat="42.57069" lon="1.99275">
        <ele>2035</ele>
        <time>2022-07-01T12:59:41Z</time>
      </trkpt>
      <trkpt lat="42.57083" lon="1.99249">
        <ele>2041</ele>
        <time>2022-07-01T13:00:13Z</time>
      </trkpt>
      <trkpt lat="42.57109" lon="1.99237">
        <ele>2046</ele>
        <time>2022-07-01T13:00:50Z</time>
      </trkpt>
      <trkpt lat="42.57125" lon="1.99239">
        <ele>2045</ele>
        <time>2022-07-01T13:01:11Z</time>
      </trkpt>
      <trkpt lat="42.57187" lon="1.99286">
        <ele>2036</ele>
        <time>2022-07-01T13:02:46Z</time>
      </trkpt>
      <trkpt lat="42.572" lon="1.9931">
        <ele>2032</ele>
        <time>2022-07-01T13:03:15Z</time>
      </trkpt>
      <trkpt lat="42.5723" lon="1.99326">
        <ele>2031</ele>
        <time>2022-07-01T13:03:58Z</time>
      </trkpt>
      <trkpt lat="42.57247" lon="1.99305">
        <ele>2037</ele>
        <time>2022-07-01T13:04:29Z</time>
      </trkpt>
      <trkpt lat="42.57262" lon="1.99277">
        <ele>2043</ele>
        <time>2022-07-01T13:05:03Z</time>
      </trkpt>
      <trkpt lat="42.57322" lon="1.99262">
        <ele>2046</ele>
        <time>2022-07-01T13:06:24Z</time>
      </trkpt>
      <trkpt lat="42.57334" lon="1.99265">
        <ele>2045</ele>
        <time>2022-07-01T13:06:40Z</time>
      </trkpt>
      <trkpt lat="42.57361" lon="1.99283">
        <ele>2040</ele>
        <time>2022-07-01T13:07:21Z</time>
      </trkpt>
      <trkpt lat="42.57421" lon="1.99295">
        <ele>2036</ele>
        <time>2022-07-01T13:08:41Z</time>
      </trkpt>
      <trkpt lat="42.57439" lon="1.99314">
        <ele>2033</ele>
        <time>2022-07-01T13:09:12Z</time>
      </trkpt>
      <trkpt lat="42.57447" lon="1.99316">
        <ele>2033</ele>
        <time>2022-07-01T13:09:23Z</time>
      </trkpt>
      <trkpt lat="42.57454" lon="1.99337">
        <ele>2028</ele>
        <time>2022-07-01T13:09:45Z</time>
      </trkpt>
      <trkpt lat="42.57475" lon="1.99347">
        <ele>2027</ele>
        <time>2022-07-01T13:10:15Z</time>
      </trkpt>
      <trkpt lat="42.57481" lon="1.99357">
        <ele>2025</ele>
        <time>2022-07-01T13:10:28Z</time>
      </trkpt>
      <trkpt lat="42.57491" lon="1.99362">
        <ele>2025</ele>
        <time>2022-07-01T13:10:42Z</time>
      </trkpt>
      <trkpt lat="42.57512" lon="1.9936">
        <ele>2027</ele>
        <time>2022-07-01T13:11:10Z</time>
      </trkpt>
      <trkpt lat="42.57567" lon="1.99391">
        <ele>2027</ele>
        <time>2022-07-01T13:12:30Z</time>
      </trkpt>
      <trkpt lat="42.57608" lon="1.99406">
        <ele>2025</ele>
        <time>2022-07-01T13:13:26Z</time>
      </trkpt>
      <trkpt lat="42.57639" lon="1.994">
        <ele>2027</ele>
        <time>2022-07-01T13:14:08Z</time>
      </trkpt>
      <trkpt lat="42.57653" lon="1.99414">
        <ele>2024</ele>
        <time>2022-07-01T13:14:31Z</time>
      </trkpt>
      <trkpt lat="42.57664" lon="1.99411">
        <ele>2025</ele>
        <time>2022-07-01T13:14:46Z</time>
      </trkpt>
      <trkpt lat="42.57686" lon="1.99391">
        <ele>2029</ele>
        <time>2022-07-01T13:15:22Z</time>
      </trkpt>
      <trkpt lat="42.57762" lon="1.9938">
        <ele>2031</ele>
        <time>2022-07-01T13:17:04Z</time>
      </trkpt>
      <trkpt lat="42.57835" lon="1.99401">
        <ele>2033</ele>
        <time>2022-07-01T13:18:43Z</time>
      </trkpt>
      <trkpt lat="42.57846" lon="1.99401">
        <ele>2035</ele>
        <time>2022-07-01T13:18:58Z</time>
      </trkpt>
      <trkpt lat="42.57878" lon="1.99439">
        <ele>2039</ele>
        <time>2022-07-01T13:19:55Z</time>
      </trkpt>
      <trkpt lat="42.57923" lon="1.99471">
        <ele>2047</ele>
        <time>2022-07-01T13:21:02Z</time>
      </trkpt>
      <trkpt lat="42.57941" lon="1.99511">
        <ele>2049</ele>
        <time>2022-07-01T13:21:48Z</time>
      </trkpt>
      <trkpt lat="42.57962" lon="1.99516">
        <ele>2053</ele>
        <time>2022-07-01T13:22:17Z</time>
      </trkpt>
      <trkpt lat="42.58002" lon="1.99546">
        <ele>2055</ele>
        <time>2022-07-01T13:23:18Z</time>
      </trkpt>
      <trkpt lat="42.58021" lon="1.99552">
        <ele>2054</ele>
        <time>2022-07-01T13:23:44Z</time>
      </trkpt>
      <trkpt lat="42.58033" lon="1.99566">
        <ele>2052</ele>
        <time>2022-07-01T13:24:05Z</time>
      </trkpt>
      <trkpt lat="42.58057" lon="1.99568">
        <ele>2053</ele>
        <time>2022-07-01T13:24:37Z</time>
      </trkpt>
      <trkpt lat="42.5808" lon="1.99556">
        <ele>2056</ele>
        <time>2022-07-01T13:25:10Z</time>
      </trkpt>
      <trkpt lat="42.58102" lon="1.9953">
        <ele>2059</ele>
        <time>2022-07-01T13:25:49Z</time>
      </trkpt>
      <trkpt lat="42.58111" lon="1.9953">
        <ele>2058</ele>
        <time>2022-07-01T13:26:01Z</time>
      </trkpt>
      <trkpt lat="42.58107" lon="1.9953">
        <ele>2058</ele>
        <time>2022-07-01T13:26:06Z</time>
      </trkpt>
      <trkpt lat="42.58107" lon="1.99522">
        <ele>2059</ele>
        <time>2022-07-01T13:26:14Z</time>
      </trkpt>
      <trkpt lat="42.58142" lon="1.99521">
        <ele>2056</ele>
        <time>2022-07-01T13:27:01Z</time>
      </trkpt>
      <trkpt lat="42.58163" lon="1.99537">
        <ele>2054</ele>
        <time>2022-07-01T13:27:33Z</time>
      </trkpt>
      <trkpt lat="42.58184" lon="1.99567">
        <ele>2052</ele>
        <time>2022-07-01T13:28:14Z</time>
      </trkpt>
      <trkpt lat="42.58226" lon="1.99683">
        <ele>2047</ele>
        <time>2022-07-01T13:30:21Z</time>
      </trkpt>
      <trkpt lat="42.58218" lon="1.99775">
        <ele>2046</ele>
        <time>2022-07-01T13:31:52Z</time>
      </trkpt>
      <trkpt lat="42.58221" lon="1.99813">
        <ele>2042</ele>
        <time>2022-07-01T13:32:29Z</time>
      </trkpt>
      <trkpt lat="42.58217" lon="1.99854">
        <ele>2040</ele>
        <time>2022-07-01T13:33:10Z</time>
      </trkpt>
      <trkpt lat="42.58195" lon="1.99903">
        <ele>2037</ele>
        <time>2022-07-01T13:34:06Z</time>
      </trkpt>
      <trkpt lat="42.58199" lon="1.99917">
        <ele>2036</ele>
        <time>2022-07-01T13:34:21Z</time>
      </trkpt>
      <trkpt lat="42.58217" lon="1.99923">
        <ele>2037</ele>
        <time>2022-07-01T13:34:46Z</time>
      </trkpt>
      <trkpt lat="42.58282" lon="1.9992">
        <ele>2043</ele>
        <time>2022-07-01T13:36:12Z</time>
      </trkpt>
      <trkpt lat="42.583" lon="1.99901">
        <ele>2045</ele>
        <time>2022-07-01T13:36:43Z</time>
      </trkpt>
      <trkpt lat="42.58328" lon="1.99882">
        <ele>2049</ele>
        <time>2022-07-01T13:37:25Z</time>
      </trkpt>
      <trkpt lat="42.58413" lon="1.99862">
        <ele>2064</ele>
        <time>2022-07-01T13:39:20Z</time>
      </trkpt>
      <trkpt lat="42.58443" lon="1.99843">
        <ele>2072</ele>
        <time>2022-07-01T13:40:04Z</time>
      </trkpt>
      <trkpt lat="42.58477" lon="1.99834">
        <ele>2081</ele>
        <time>2022-07-01T13:40:50Z</time>
      </trkpt>
      <trkpt lat="42.58514" lon="1.99813">
        <ele>2092</ele>
        <time>2022-07-01T13:41:44Z</time>
      </trkpt>
      <trkpt lat="42.58535" lon="1.9977">
        <ele>2100</ele>
        <time>2022-07-01T13:42:34Z</time>
      </trkpt>
      <trkpt lat="42.58566" lon="1.99737">
        <ele>2109</ele>
        <time>2022-07-01T13:43:27Z</time>
      </trkpt>
      <trkpt lat="42.58601" lon="1.99689">
        <ele>2121</ele>
        <time>2022-07-01T13:44:33Z</time>
      </trkpt>
      <trkpt lat="42.58608" lon="1.99672">
        <ele>2125</ele>
        <time>2022-07-01T13:44:52Z</time>
      </trkpt>
      <trkpt lat="42.58612" lon="1.99637">
        <ele>2125</ele>
        <time>2022-07-01T13:45:27Z</time>
      </trkpt>
      <trkpt lat="42.5864" lon="1.99588">
        <ele>2134</ele>
        <time>2022-07-01T13:46:28Z</time>
      </trkpt>
      <trkpt lat="42.58698" lon="1.9953">
        <ele>2146</ele>
        <time>2022-07-01T13:48:04Z</time>
      </trkpt>
      <trkpt lat="42.58761" lon="1.99514">
        <ele>2164</ele>
        <time>2022-07-01T13:49:30Z</time>
      </trkpt>
      <trkpt lat="42.58756" lon="1.99514">
        <ele>2163</ele>
        <time>2022-07-01T13:49:36Z</time>
      </trkpt>
      <trkpt lat="42.58756" lon="1.99497">
        <ele>2161</ele>
        <time>2022-07-01T13:49:53Z</time>
      </trkpt>
      <trkpt lat="42.5877" lon="1.99476">
        <ele>2162</ele>
        <time>2022-07-01T13:50:21Z</time>
      </trkpt>
      <trkpt lat="42.58788" lon="1.99465">
        <ele>2166</ele>
        <time>2022-07-01T13:50:47Z</time>
      </trkpt>
      <trkpt lat="42.5884" lon="1.99465">
        <ele>2179</ele>
        <time>2022-07-01T13:51:57Z</time>
      </trkpt>
      <trkpt lat="42.58887" lon="1.99444">
        <ele>2187</ele>
        <time>2022-07-01T13:53:03Z</time>
      </trkpt>
      <trkpt lat="42.58907" lon="1.99444">
        <ele>2190</ele>
        <time>2022-07-01T13:53:29Z</time>
      </trkpt>
      <trkpt lat="42.58921" lon="1.99448">
        <ele>2192</ele>
        <time>2022-07-01T13:53:49Z</time>
      </trkpt>
      <trkpt lat="42.58927" lon="1.99458">
        <ele>2192</ele>
        <time>2022-07-01T13:54:01Z</time>
      </trkpt>
      <trkpt lat="42.58924" lon="1.99461">
        <ele>2191</ele>
        <time>2022-07-01T13:54:06Z</time>
      </trkpt>
      <trkpt lat="42.58924" lon="1.99478">
        <ele>2190</ele>
        <time>2022-07-01T13:54:23Z</time>
      </trkpt>
      <trkpt lat="42.58919" lon="1.99416">
        <ele>2195</ele>
        <time>2022-07-01T13:55:24Z</time>
      </trkpt>
      <trkpt lat="42.58926" lon="1.99376">
        <ele>2197</ele>
        <time>2022-07-01T13:56:05Z</time>
      </trkpt>
      <trkpt lat="42.58944" lon="1.99289">
        <ele>2197</ele>
        <time>2022-07-01T13:57:33Z</time>
      </trkpt>
      <trkpt lat="42.58958" lon="1.99254">
        <ele>2196</ele>
        <time>2022-07-01T13:58:13Z</time>
      </trkpt>
      <trkpt lat="42.58991" lon="1.99205">
        <ele>2199</ele>
        <time>2022-07-01T13:59:18Z</time>
      </trkpt>
      <trkpt lat="42.5902" lon="1.99188">
        <ele>2205</ele>
        <time>2022-07-01T14:00:00Z</time>
      </trkpt>
      <trkpt lat="42.59074" lon="1.99166">
        <ele>2214</ele>
        <time>2022-07-01T14:01:15Z</time>
      </trkpt>
      <trkpt lat="42.59242" lon="1.99156">
        <ele>2237</ele>
        <time>2022-07-01T14:05:00Z</time>
      </trkpt>
      <trkpt lat="42.59255" lon="1.99149">
        <ele>2239</ele>
        <time>2022-07-01T14:05:18Z</time>
      </trkpt>
      <trkpt lat="42.59263" lon="1.99154">
        <ele>2241</ele>
        <time>2022-07-01T14:05:30Z</time>
      </trkpt>
      <trkpt lat="42.59262" lon="1.99149">
        <ele>2241</ele>
        <time>2022-07-01T14:05:35Z</time>
      </trkpt>
      <trkpt lat="42.59275" lon="1.99146">
        <ele>2243</ele>
        <time>2022-07-01T14:05:53Z</time>
      </trkpt>
      <trkpt lat="42.59296" lon="1.99122">
        <ele>2247</ele>
        <time>2022-07-01T14:06:29Z</time>
      </trkpt>
      <trkpt lat="42.59321" lon="1.99113">
        <ele>2252</ele>
        <time>2022-07-01T14:07:04Z</time>
      </trkpt>
      <trkpt lat="42.59363" lon="1.99086">
        <ele>2256</ele>
        <time>2022-07-01T14:08:06Z</time>
      </trkpt>
      <trkpt lat="42.59374" lon="1.99086">
        <ele>2258</ele>
        <time>2022-07-01T14:08:20Z</time>
      </trkpt>
      <trkpt lat="42.59403" lon="1.99063">
        <ele>2261</ele>
        <time>2022-07-01T14:09:05Z</time>
      </trkpt>
      <trkpt lat="42.59412" lon="1.99037">
        <ele>2262</ele>
        <time>2022-07-01T14:09:33Z</time>
      </trkpt>
      <trkpt lat="42.59425" lon="1.99026">
        <ele>2263</ele>
        <time>2022-07-01T14:09:54Z</time>
      </trkpt>
      <trkpt lat="42.59483" lon="1.99">
        <ele>2261</ele>
        <time>2022-07-01T14:11:15Z</time>
      </trkpt>
      <trkpt lat="42.5953" lon="1.98992">
        <ele>2261</ele>
        <time>2022-07-01T14:12:19Z</time>
      </trkpt>
      <trkpt lat="42.59542" lon="1.98985">
        <ele>2261</ele>
        <time>2022-07-01T14:12:36Z</time>
      </trkpt>
      <trkpt lat="42.59566" lon="1.98933">
        <ele>2260</ele>
        <time>2022-07-01T14:13:36Z</time>
      </trkpt>
      <trkpt lat="42.59581" lon="1.98921">
        <ele>2259</ele>
        <time>2022-07-01T14:14:00Z</time>
      </trkpt>
      <trkpt lat="42.59627" lon="1.98911">
        <ele>2262</ele>
        <time>2022-07-01T14:15:02Z</time>
      </trkpt>
      <trkpt lat="42.5963" lon="1.989">
        <ele>2262</ele>
        <time>2022-07-01T14:15:13Z</time>
      </trkpt>
      <trkpt lat="42.59655" lon="1.98888">
        <ele>2264</ele>
        <time>2022-07-01T14:15:49Z</time>
      </trkpt>
      <trkpt lat="42.59667" lon="1.98897">
        <ele>2264</ele>
        <time>2022-07-01T14:16:07Z</time>
      </trkpt>
      <trkpt lat="42.59681" lon="1.989">
        <ele>2265</ele>
        <time>2022-07-01T14:16:26Z</time>
      </trkpt>
      <trkpt lat="42.59708" lon="1.98878">
        <ele>2266</ele>
        <time>2022-07-01T14:17:08Z</time>
      </trkpt>
      <trkpt lat="42.59741" lon="1.98873">
        <ele>2266</ele>
        <time>2022-07-01T14:17:52Z</time>
      </trkpt>
      <trkpt lat="42.59761" lon="1.98882">
        <ele>2267</ele>
        <time>2022-07-01T14:18:20Z</time>
      </trkpt>
      <trkpt lat="42.59799" lon="1.98876">
        <ele>2268</ele>
        <time>2022-07-01T14:19:11Z</time>
      </trkpt>
      <trkpt lat="42.5982" lon="1.98881">
        <ele>2269</ele>
        <time>2022-07-01T14:19:40Z</time>
      </trkpt>
      <trkpt lat="42.59851" lon="1.98871">
        <ele>2272</ele>
        <time>2022-07-01T14:20:22Z</time>
      </trkpt>
      <trkpt lat="42.59878" lon="1.98853">
        <ele>2275</ele>
        <time>2022-07-01T14:21:02Z</time>
      </trkpt>
      <trkpt lat="42.5989" lon="1.98819">
        <ele>2275</ele>
        <time>2022-07-01T14:21:40Z</time>
      </trkpt>
      <trkpt lat="42.59906" lon="1.988">
        <ele>2278</ele>
        <time>2022-07-01T14:22:08Z</time>
      </trkpt>
      <trkpt lat="42.59942" lon="1.98785">
        <ele>2279</ele>
        <time>2022-07-01T14:22:58Z</time>
      </trkpt>
      <trkpt lat="42.59978" lon="1.9876">
        <ele>2278</ele>
        <time>2022-07-01T14:23:52Z</time>
      </trkpt>
      <trkpt lat="42.59994" lon="1.98758">
        <ele>2278</ele>
        <time>2022-07-01T14:24:14Z</time>
      </trkpt>
      <trkpt lat="42.60019" lon="1.98768">
        <ele>2279</ele>
        <time>2022-07-01T14:24:48Z</time>
      </trkpt>
      <trkpt lat="42.60066" lon="1.98765">
        <ele>2279</ele>
        <time>2022-07-01T14:25:51Z</time>
      </trkpt>
      <trkpt lat="42.60107" lon="1.98744">
        <ele>2279</ele>
        <time>2022-07-01T14:26:50Z</time>
      </trkpt>
      <trkpt lat="42.60138" lon="1.98737">
        <ele>2281</ele>
        <time>2022-07-01T14:27:31Z</time>
      </trkpt>
      <trkpt lat="42.60206" lon="1.98736">
        <ele>2287</ele>
        <time>2022-07-01T14:29:02Z</time>
      </trkpt>
      <trkpt lat="42.60319" lon="1.9869">
        <ele>2296</ele>
        <time>2022-07-01T14:31:40Z</time>
      </trkpt>
      <trkpt lat="42.60367" lon="1.98718">
        <ele>2301</ele>
        <time>2022-07-01T14:32:49Z</time>
      </trkpt>
      <trkpt lat="42.60382" lon="1.98706">
        <ele>2301</ele>
        <time>2022-07-01T14:33:13Z</time>
      </trkpt>
      <trkpt lat="42.60393" lon="1.98712">
        <ele>2302</ele>
        <time>2022-07-01T14:33:28Z</time>
      </trkpt>
      <trkpt lat="42.60454" lon="1.98708">
        <ele>2309</ele>
        <time>2022-07-01T14:34:50Z</time>
      </trkpt>
      <trkpt lat="42.60495" lon="1.98693">
        <ele>2313</ele>
        <time>2022-07-01T14:35:47Z</time>
      </trkpt>
      <trkpt lat="42.60524" lon="1.98665">
        <ele>2318</ele>
        <time>2022-07-01T14:36:34Z</time>
      </trkpt>
      <trkpt lat="42.60615" lon="1.98507">
        <ele>2346</ele>
        <time>2022-07-01T14:39:51Z</time>
      </trkpt>
      <trkpt lat="42.60625" lon="1.98495">
        <ele>2348</ele>
        <time>2022-07-01T14:40:09Z</time>
      </trkpt>
      <trkpt lat="42.60628" lon="1.98445">
        <ele>2352</ele>
        <time>2022-07-01T14:40:58Z</time>
      </trkpt>
      <trkpt lat="42.60637" lon="1.98424">
        <ele>2354</ele>
        <time>2022-07-01T14:41:22Z</time>
      </trkpt>
      <trkpt lat="42.60642" lon="1.98425">
        <ele>2354</ele>
        <time>2022-07-01T14:41:29Z</time>
      </trkpt>
      <trkpt lat="42.60649" lon="1.98409">
        <ele>2355</ele>
        <time>2022-07-01T14:41:47Z</time>
      </trkpt>
      <trkpt lat="42.60675" lon="1.98381">
        <ele>2360</ele>
        <time>2022-07-01T14:42:31Z</time>
      </trkpt>
      <trkpt lat="42.60698" lon="1.98377">
        <ele>2365</ele>
        <time>2022-07-01T14:43:02Z</time>
      </trkpt>
      <trkpt lat="42.60731" lon="1.98333">
        <ele>2372</ele>
        <time>2022-07-01T14:44:04Z</time>
      </trkpt>
      <trkpt lat="42.60731" lon="1.9831">
        <ele>2373</ele>
        <time>2022-07-01T14:44:27Z</time>
      </trkpt>
      <trkpt lat="42.60751" lon="1.98293">
        <ele>2377</ele>
        <time>2022-07-01T14:44:58Z</time>
      </trkpt>
      <trkpt lat="42.6076" lon="1.98274">
        <ele>2381</ele>
        <time>2022-07-01T14:45:20Z</time>
      </trkpt>
      <trkpt lat="42.60781" lon="1.98251">
        <ele>2388</ele>
        <time>2022-07-01T14:45:56Z</time>
      </trkpt>
      <trkpt lat="42.60808" lon="1.98182">
        <ele>2399</ele>
        <time>2022-07-01T14:47:13Z</time>
      </trkpt>
      <trkpt lat="42.6082" lon="1.98166">
        <ele>2403</ele>
        <time>2022-07-01T14:47:35Z</time>
      </trkpt>
      <trkpt lat="42.60846" lon="1.98146">
        <ele>2410</ele>
        <time>2022-07-01T14:48:15Z</time>
      </trkpt>
      <trkpt lat="42.60852" lon="1.98106">
        <ele>2412</ele>
        <time>2022-07-01T14:48:55Z</time>
      </trkpt>
      <trkpt lat="42.6085" lon="1.98078">
        <ele>2412</ele>
        <time>2022-07-01T14:49:23Z</time>
      </trkpt>
      <trkpt lat="42.60856" lon="1.98057">
        <ele>2413</ele>
        <time>2022-07-01T14:49:45Z</time>
      </trkpt>
      <trkpt lat="42.60853" lon="1.98061">
        <ele>2413</ele>
        <time>2022-07-01T14:49:51Z</time>
      </trkpt>
      <trkpt lat="42.6085" lon="1.9805">
        <ele>2412</ele>
        <time>2022-07-01T14:50:02Z</time>
      </trkpt>
      <trkpt lat="42.60869" lon="1.98019">
        <ele>2415</ele>
        <time>2022-07-01T14:50:42Z</time>
      </trkpt>
      <trkpt lat="42.6086" lon="1.97994">
        <ele>2413</ele>
        <time>2022-07-01T14:51:09Z</time>
      </trkpt>
      <trkpt lat="42.60837" lon="1.9791">
        <ele>2412</ele>
        <time>2022-07-01T14:52:37Z</time>
      </trkpt>
      <trkpt lat="42.60842" lon="1.97814">
        <ele>2413</ele>
        <time>2022-07-01T14:54:12Z</time>
      </trkpt>
      <trkpt lat="42.6086" lon="1.97714">
        <ele>2413</ele>
        <time>2022-07-01T14:55:53Z</time>
      </trkpt>
      <trkpt lat="42.60897" lon="1.97641">
        <ele>2415</ele>
        <time>2022-07-01T14:57:20Z</time>
      </trkpt>
      <trkpt lat="42.60903" lon="1.97616">
        <ele>2415</ele>
        <time>2022-07-01T14:57:46Z</time>
      </trkpt>
      <trkpt lat="42.60903" lon="1.976">
        <ele>2416</ele>
        <time>2022-07-01T14:58:01Z</time>
      </trkpt>
      <trkpt lat="42.60971" lon="1.97509">
        <ele>2419</ele>
        <time>2022-07-01T15:00:09Z</time>
      </trkpt>
      <trkpt lat="42.60975" lon="1.97496">
        <ele>2420</ele>
        <time>2022-07-01T15:00:23Z</time>
      </trkpt>
      <trkpt lat="42.61017" lon="1.97463">
        <ele>2428</ele>
        <time>2022-07-01T15:01:27Z</time>
      </trkpt>
      <trkpt lat="42.61023" lon="1.9747">
        <ele>2428</ele>
        <time>2022-07-01T15:01:38Z</time>
      </trkpt>
      <trkpt lat="42.61021" lon="1.97466">
        <ele>2428</ele>
        <time>2022-07-01T15:01:43Z</time>
      </trkpt>
      <trkpt lat="42.61055" lon="1.9744">
        <ele>2434</ele>
        <time>2022-07-01T15:02:35Z</time>
      </trkpt>
      <trkpt lat="42.61071" lon="1.97413">
        <ele>2437</ele>
        <time>2022-07-01T15:03:09Z</time>
      </trkpt>
      <trkpt lat="42.61118" lon="1.97353">
        <ele>2450</ele>
        <time>2022-07-01T15:04:35Z</time>
      </trkpt>
      <trkpt lat="42.6112" lon="1.97333">
        <ele>2452</ele>
        <time>2022-07-01T15:04:55Z</time>
      </trkpt>
      <trkpt lat="42.6113" lon="1.9733">
        <ele>2454</ele>
        <time>2022-07-01T15:05:08Z</time>
      </trkpt>
      <trkpt lat="42.61153" lon="1.97271">
        <ele>2462</ele>
        <time>2022-07-01T15:06:14Z</time>
      </trkpt>
      <trkpt lat="42.61162" lon="1.97192">
        <ele>2472</ele>
        <time>2022-07-01T15:07:32Z</time>
      </trkpt>
      <trkpt lat="42.61153" lon="1.97148">
        <ele>2475</ele>
        <time>2022-07-01T15:08:17Z</time>
      </trkpt>
      <trkpt lat="42.61157" lon="1.97093">
        <ele>2483</ele>
        <time>2022-07-01T15:09:12Z</time>
      </trkpt>
      <trkpt lat="42.61185" lon="1.97065">
        <ele>2492</ele>
        <time>2022-07-01T15:09:58Z</time>
      </trkpt>
      <trkpt lat="42.61204" lon="1.9706">
        <ele>2499</ele>
        <time>2022-07-01T15:10:24Z</time>
      </trkpt>
      <trkpt lat="42.61221" lon="1.97037">
        <ele>2505</ele>
        <time>2022-07-01T15:10:56Z</time>
      </trkpt>
      <trkpt lat="42.61235" lon="1.9703">
        <ele>2510</ele>
        <time>2022-07-01T15:11:16Z</time>
      </trkpt>
      <trkpt lat="42.61257" lon="1.97029">
        <ele>2516</ele>
        <time>2022-07-01T15:11:45Z</time>
      </trkpt>
      <trkpt lat="42.6125" lon="1.97049">
        <ele>2513</ele>
        <time>2022-07-01T15:12:07Z</time>
      </trkpt>
      <trkpt lat="42.61275" lon="1.97029">
        <ele>2520</ele>
        <time>2022-07-01T15:12:46Z</time>
      </trkpt>
      <trkpt lat="42.61283" lon="1.97016">
        <ele>2522</ele>
        <time>2022-07-01T15:13:02Z</time>
      </trkpt>
      <trkpt lat="42.61301" lon="1.97009">
        <ele>2526</ele>
        <time>2022-07-01T15:13:27Z</time>
      </trkpt>
      <trkpt lat="42.61313" lon="1.96992">
        <ele>2528</ele>
        <time>2022-07-01T15:13:50Z</time>
      </trkpt>
      <trkpt lat="42.61325" lon="1.96991">
        <ele>2530</ele>
        <time>2022-07-01T15:14:06Z</time>
      </trkpt>
      <trkpt lat="42.61341" lon="1.96976">
        <ele>2533</ele>
        <time>2022-07-01T15:14:32Z</time>
      </trkpt>
      <trkpt lat="42.61371" lon="1.96923">
        <ele>2536</ele>
        <time>2022-07-01T15:15:38Z</time>
      </trkpt>
      <trkpt lat="42.61414" lon="1.96885">
        <ele>2538</ele>
        <time>2022-07-01T15:16:46Z</time>
      </trkpt>
      <trkpt lat="42.61447" lon="1.96827">
        <ele>2540</ele>
        <time>2022-07-01T15:17:58Z</time>
      </trkpt>
      <trkpt lat="42.6145" lon="1.96813">
        <ele>2540</ele>
        <time>2022-07-01T15:18:13Z</time>
      </trkpt>
      <trkpt lat="42.61451" lon="1.9682">
        <ele>2541</ele>
        <time>2022-07-01T15:18:20Z</time>
      </trkpt>
      <trkpt lat="42.61464" lon="1.96833">
        <ele>2545</ele>
        <time>2022-07-01T15:18:41Z</time>
      </trkpt>
      <trkpt lat="42.61475" lon="1.96854">
        <ele>2551</ele>
        <time>2022-07-01T15:19:07Z</time>
      </trkpt>
      <trkpt lat="42.61495" lon="1.96873">
        <ele>2560</ele>
        <time>2022-07-01T15:19:39Z</time>
      </trkpt>
      <trkpt lat="42.6151" lon="1.96863">
        <ele>2565</ele>
        <time>2022-07-01T15:20:01Z</time>
      </trkpt>
      <trkpt lat="42.6153" lon="1.96891">
        <ele>2577</ele>
        <time>2022-07-01T15:20:40Z</time>
      </trkpt>
      <trkpt lat="42.61535" lon="1.96886">
        <ele>2579</ele>
        <time>2022-07-01T15:20:48Z</time>
      </trkpt>
      <trkpt lat="42.61555" lon="1.96904">
        <ele>2589</ele>
        <time>2022-07-01T15:21:20Z</time>
      </trkpt>
      <trkpt lat="42.61561" lon="1.96897">
        <ele>2591</ele>
        <time>2022-07-01T15:21:31Z</time>
      </trkpt>
      <trkpt lat="42.61574" lon="1.96896">
        <ele>2597</ele>
        <time>2022-07-01T15:21:48Z</time>
      </trkpt>
      <trkpt lat="42.61582" lon="1.96861">
        <ele>2599</ele>
        <time>2022-07-01T15:22:24Z</time>
      </trkpt>
      <trkpt lat="42.61599" lon="1.96843">
        <ele>2599</ele>
        <time>2022-07-01T15:22:53Z</time>
      </trkpt>
      <trkpt lat="42.61609" lon="1.96822">
        <ele>2597</ele>
        <time>2022-07-01T15:23:17Z</time>
      </trkpt>
      <trkpt lat="42.61624" lon="1.96765">
        <ele>2593</ele>
        <time>2022-07-01T15:24:17Z</time>
      </trkpt>
      <trkpt lat="42.61635" lon="1.96758">
        <ele>2593</ele>
        <time>2022-07-01T15:24:33Z</time>
      </trkpt>
      <trkpt lat="42.61639" lon="1.96748">
        <ele>2592</ele>
        <time>2022-07-01T15:24:44Z</time>
      </trkpt>
      <trkpt lat="42.61639" lon="1.96694">
        <ele>2588</ele>
        <time>2022-07-01T15:25:37Z</time>
      </trkpt>
      <trkpt lat="42.61631" lon="1.96647">
        <ele>2583</ele>
        <time>2022-07-01T15:26:25Z</time>
      </trkpt>
      <trkpt lat="42.61632" lon="1.96639">
        <ele>2583</ele>
        <time>2022-07-01T15:26:33Z</time>
      </trkpt>
      <trkpt lat="42.61635" lon="1.96638">
        <ele>2583</ele>
        <time>2022-07-01T15:26:37Z</time>
      </trkpt>
      <trkpt lat="42.61637" lon="1.96644">
        <ele>2583</ele>
        <time>2022-07-01T15:26:43Z</time>
      </trkpt>
      <trkpt lat="42.61639" lon="1.9664">
        <ele>2583</ele>
        <time>2022-07-01T15:26:48Z</time>
      </trkpt>
      <trkpt lat="42.61632" lon="1.96618">
        <ele>2581</ele>
        <time>2022-07-01T15:27:11Z</time>
      </trkpt>
      <trkpt lat="42.61627" lon="1.96618">
        <ele>2581</ele>
        <time>2022-07-01T15:27:18Z</time>
      </trkpt>
      <trkpt lat="42.61631" lon="1.96604">
        <ele>2580</ele>
        <time>2022-07-01T15:27:33Z</time>
      </trkpt>
      <trkpt lat="42.61628" lon="1.96564">
        <ele>2580</ele>
        <time>2022-07-01T15:28:12Z</time>
      </trkpt>
      <trkpt lat="42.61635" lon="1.9652">
        <ele>2586</ele>
        <time>2022-07-01T15:28:57Z</time>
      </trkpt>
      <trkpt lat="42.61632" lon="1.96489">
        <ele>2589</ele>
        <time>2022-07-01T15:29:27Z</time>
      </trkpt>
      <trkpt lat="42.61638" lon="1.96487">
        <ele>2591</ele>
        <time>2022-07-01T15:29:36Z</time>
      </trkpt>
      <trkpt lat="42.61647" lon="1.96466">
        <ele>2598</ele>
        <time>2022-07-01T15:29:59Z</time>
      </trkpt>
      <trkpt lat="42.61648" lon="1.96437">
        <ele>2603</ele>
        <time>2022-07-01T15:30:28Z</time>
      </trkpt>
      <trkpt lat="42.61662" lon="1.96425">
        <ele>2613</ele>
        <time>2022-07-01T15:30:50Z</time>
      </trkpt>
      <trkpt lat="42.61679" lon="1.96396">
        <ele>2620</ele>
        <time>2022-07-01T15:31:26Z</time>
      </trkpt>
      <trkpt lat="42.61696" lon="1.96351">
        <ele>2629</ele>
        <time>2022-07-01T15:32:16Z</time>
      </trkpt>
      <trkpt lat="42.61699" lon="1.96318">
        <ele>2634</ele>
        <time>2022-07-01T15:32:49Z</time>
      </trkpt>
      <trkpt lat="42.61705" lon="1.96306">
        <ele>2636</ele>
        <time>2022-07-01T15:33:03Z</time>
      </trkpt>
      <trkpt lat="42.61704" lon="1.96293">
        <ele>2638</ele>
        <time>2022-07-01T15:33:16Z</time>
      </trkpt>
      <trkpt lat="42.61715" lon="1.96256">
        <ele>2643</ele>
        <time>2022-07-01T15:33:55Z</time>
      </trkpt>
      <trkpt lat="42.61711" lon="1.9624">
        <ele>2644</ele>
        <time>2022-07-01T15:34:12Z</time>
      </trkpt>
      <trkpt lat="42.61724" lon="1.96206">
        <ele>2649</ele>
        <time>2022-07-01T15:34:49Z</time>
      </trkpt>
      <trkpt lat="42.61709" lon="1.96122">
        <ele>2663</ele>
        <time>2022-07-01T15:36:14Z</time>
      </trkpt>
      <trkpt lat="42.61713" lon="1.96086">
        <ele>2670</ele>
        <time>2022-07-01T15:36:50Z</time>
      </trkpt>
      <trkpt lat="42.61696" lon="1.96036">
        <ele>2690</ele>
        <time>2022-07-01T15:37:44Z</time>
      </trkpt>
      <trkpt lat="42.61708" lon="1.95987">
        <ele>2706</ele>
        <time>2022-07-01T15:38:35Z</time>
      </trkpt>
      <trkpt lat="42.61706" lon="1.95972">
        <ele>2710</ele>
        <time>2022-07-01T15:38:50Z</time>
      </trkpt>
      <trkpt lat="42.61714" lon="1.95954">
        <ele>2715</ele>
        <time>2022-07-01T15:39:10Z</time>
      </trkpt>
      <trkpt lat="42.61707" lon="1.95942">
        <ele>2719</ele>
        <time>2022-07-01T15:39:25Z</time>
      </trkpt>
      <trkpt lat="42.61708" lon="1.95916">
        <ele>2725</ele>
        <time>2022-07-01T15:39:51Z</time>
      </trkpt>
      <trkpt lat="42.61716" lon="1.95902">
        <ele>2719</ele>
        <time>2022-07-01T15:40:08Z</time>
      </trkpt>
      <trkpt lat="42.61718" lon="1.95905">
        <ele>2721</ele>
        <time>2022-07-01T15:40:12Z</time>
      </trkpt>
      <trkpt lat="42.61729" lon="1.95895">
        <ele>2718</ele>
        <time>2022-07-01T15:40:30Z</time>
      </trkpt>
      <trkpt lat="42.61734" lon="1.95882">
        <ele>2715</ele>
        <time>2022-07-01T15:40:44Z</time>
      </trkpt>
      <trkpt lat="42.61725" lon="1.95902">
        <ele>2720</ele>
        <time>2022-07-01T15:41:07Z</time>
      </trkpt>
      <trkpt lat="42.6172" lon="1.95903">
        <ele>2720</ele>
        <time>2022-07-01T15:41:14Z</time>
      </trkpt>
      <trkpt lat="42.61712" lon="1.95922">
        <ele>2724</ele>
        <time>2022-07-01T15:41:36Z</time>
      </trkpt>
      <trkpt lat="42.61722" lon="1.95979">
        <ele>2707</ele>
        <time>2022-07-01T15:42:33Z</time>
      </trkpt>
      <trkpt lat="42.61716" lon="1.95993">
        <ele>2704</ele>
        <time>2022-07-01T15:42:49Z</time>
      </trkpt>
      <trkpt lat="42.61707" lon="1.95998">
        <ele>2703</ele>
        <time>2022-07-01T15:43:02Z</time>
      </trkpt>
      <trkpt lat="42.61704" lon="1.96039">
        <ele>2688</ele>
        <time>2022-07-01T15:43:42Z</time>
      </trkpt>
      <trkpt lat="42.61716" lon="1.9609">
        <ele>2669</ele>
        <time>2022-07-01T15:44:35Z</time>
      </trkpt>
      <trkpt lat="42.61716" lon="1.96138">
        <ele>2659</ele>
        <time>2022-07-01T15:45:22Z</time>
      </trkpt>
      <trkpt lat="42.61723" lon="1.9618">
        <ele>2651</ele>
        <time>2022-07-01T15:46:04Z</time>
      </trkpt>
      <trkpt lat="42.61723" lon="1.96221">
        <ele>2647</ele>
        <time>2022-07-01T15:46:45Z</time>
      </trkpt>
      <trkpt lat="42.61727" lon="1.9626">
        <ele>2644</ele>
        <time>2022-07-01T15:47:23Z</time>
      </trkpt>
      <trkpt lat="42.6172" lon="1.96319">
        <ele>2636</ele>
        <time>2022-07-01T15:48:22Z</time>
      </trkpt>
      <trkpt lat="42.61706" lon="1.96365">
        <ele>2627</ele>
        <time>2022-07-01T15:49:11Z</time>
      </trkpt>
      <trkpt lat="42.61694" lon="1.96372">
        <ele>2625</ele>
        <time>2022-07-01T15:49:28Z</time>
      </trkpt>
      <trkpt lat="42.61636" lon="1.96491">
        <ele>2590</ele>
        <time>2022-07-01T15:51:49Z</time>
      </trkpt>
      <trkpt lat="42.61629" lon="1.96537">
        <ele>2583</ele>
        <time>2022-07-01T15:52:35Z</time>
      </trkpt>
      <trkpt lat="42.61634" lon="1.96565">
        <ele>2581</ele>
        <time>2022-07-01T15:53:03Z</time>
      </trkpt>
      <trkpt lat="42.61628" lon="1.96585">
        <ele>2578</ele>
        <time>2022-07-01T15:53:24Z</time>
      </trkpt>
      <trkpt lat="42.61633" lon="1.96593">
        <ele>2579</ele>
        <time>2022-07-01T15:53:35Z</time>
      </trkpt>
      <trkpt lat="42.61631" lon="1.96612">
        <ele>2581</ele>
        <time>2022-07-01T15:53:53Z</time>
      </trkpt>
      <trkpt lat="42.61637" lon="1.96627">
        <ele>2582</ele>
        <time>2022-07-01T15:54:10Z</time>
      </trkpt>
      <trkpt lat="42.61645" lon="1.9663">
        <ele>2583</ele>
        <time>2022-07-01T15:54:21Z</time>
      </trkpt>
      <trkpt lat="42.61649" lon="1.96647">
        <ele>2585</ele>
        <time>2022-07-01T15:54:39Z</time>
      </trkpt>
      <trkpt lat="42.61644" lon="1.9665">
        <ele>2585</ele>
        <time>2022-07-01T15:54:46Z</time>
      </trkpt>
      <trkpt lat="42.61636" lon="1.96638">
        <ele>2583</ele>
        <time>2022-07-01T15:55:02Z</time>
      </trkpt>
      <trkpt lat="42.61638" lon="1.96647">
        <ele>2584</ele>
        <time>2022-07-01T15:55:11Z</time>
      </trkpt>
      <trkpt lat="42.61633" lon="1.96646">
        <ele>2583</ele>
        <time>2022-07-01T15:55:18Z</time>
      </trkpt>
      <trkpt lat="42.61643" lon="1.96696">
        <ele>2588</ele>
        <time>2022-07-01T15:56:09Z</time>
      </trkpt>
      <trkpt lat="42.61628" lon="1.96808">
        <ele>2597</ele>
        <time>2022-07-01T15:58:01Z</time>
      </trkpt>
      <trkpt lat="42.61647" lon="1.96911">
        <ele>2611</ele>
        <time>2022-07-01T15:59:45Z</time>
      </trkpt>
      <trkpt lat="42.61657" lon="1.96938">
        <ele>2615</ele>
        <time>2022-07-01T16:00:15Z</time>
      </trkpt>
      <trkpt lat="42.61673" lon="1.97035">
        <ele>2617</ele>
        <time>2022-07-01T16:01:52Z</time>
      </trkpt>
      <trkpt lat="42.61677" lon="1.9705">
        <ele>2614</ele>
        <time>2022-07-01T16:02:08Z</time>
      </trkpt>
      <trkpt lat="42.61685" lon="1.97055">
        <ele>2610</ele>
        <time>2022-07-01T16:02:20Z</time>
      </trkpt>
      <trkpt lat="42.6169" lon="1.97155">
        <ele>2605</ele>
        <time>2022-07-01T16:03:58Z</time>
      </trkpt>
      <trkpt lat="42.61697" lon="1.97163">
        <ele>2602</ele>
        <time>2022-07-01T16:04:10Z</time>
      </trkpt>
      <trkpt lat="42.61702" lon="1.97187">
        <ele>2597</ele>
        <time>2022-07-01T16:04:35Z</time>
      </trkpt>
      <trkpt lat="42.61696" lon="1.97181">
        <ele>2600</ele>
        <time>2022-07-01T16:04:45Z</time>
      </trkpt>
      <trkpt lat="42.61714" lon="1.97202">
        <ele>2593</ele>
        <time>2022-07-01T16:05:16Z</time>
      </trkpt>
      <trkpt lat="42.61716" lon="1.97225">
        <ele>2590</ele>
        <time>2022-07-01T16:05:39Z</time>
      </trkpt>
      <trkpt lat="42.61728" lon="1.97236">
        <ele>2588</ele>
        <time>2022-07-01T16:05:58Z</time>
      </trkpt>
      <trkpt lat="42.61724" lon="1.97237">
        <ele>2589</ele>
        <time>2022-07-01T16:06:04Z</time>
      </trkpt>
      <trkpt lat="42.61728" lon="1.97247">
        <ele>2588</ele>
        <time>2022-07-01T16:06:15Z</time>
      </trkpt>
      <trkpt lat="42.61733" lon="1.97243">
        <ele>2588</ele>
        <time>2022-07-01T16:06:23Z</time>
      </trkpt>
      <trkpt lat="42.61737" lon="1.97255">
        <ele>2586</ele>
        <time>2022-07-01T16:06:36Z</time>
      </trkpt>
      <trkpt lat="42.61744" lon="1.97268">
        <ele>2583</ele>
        <time>2022-07-01T16:06:51Z</time>
      </trkpt>
      <trkpt lat="42.61764" lon="1.97287">
        <ele>2577</ele>
        <time>2022-07-01T16:07:24Z</time>
      </trkpt>
      <trkpt lat="42.6177" lon="1.97282">
        <ele>2576</ele>
        <time>2022-07-01T16:07:33Z</time>
      </trkpt>
      <trkpt lat="42.61778" lon="1.97293">
        <ele>2574</ele>
        <time>2022-07-01T16:07:49Z</time>
      </trkpt>
      <trkpt lat="42.618" lon="1.97298">
        <ele>2571</ele>
        <time>2022-07-01T16:08:18Z</time>
      </trkpt>
      <trkpt lat="42.61806" lon="1.97316">
        <ele>2574</ele>
        <time>2022-07-01T16:08:38Z</time>
      </trkpt>
      <trkpt lat="42.61818" lon="1.97324">
        <ele>2576</ele>
        <time>2022-07-01T16:08:56Z</time>
      </trkpt>
      <trkpt lat="42.61828" lon="1.97341">
        <ele>2579</ele>
        <time>2022-07-01T16:09:17Z</time>
      </trkpt>
      <trkpt lat="42.61839" lon="1.97343">
        <ele>2580</ele>
        <time>2022-07-01T16:09:32Z</time>
      </trkpt>
      <trkpt lat="42.61842" lon="1.97352">
        <ele>2581</ele>
        <time>2022-07-01T16:09:42Z</time>
      </trkpt>
      <trkpt lat="42.61854" lon="1.97354">
        <ele>2581</ele>
        <time>2022-07-01T16:09:58Z</time>
      </trkpt>
      <trkpt lat="42.61857" lon="1.9736">
        <ele>2582</ele>
        <time>2022-07-01T16:10:05Z</time>
      </trkpt>
      <trkpt lat="42.61862" lon="1.97358">
        <ele>2582</ele>
        <time>2022-07-01T16:10:12Z</time>
      </trkpt>
      <trkpt lat="42.61882" lon="1.97377">
        <ele>2588</ele>
        <time>2022-07-01T16:10:44Z</time>
      </trkpt>
      <trkpt lat="42.61908" lon="1.97448">
        <ele>2608</ele>
        <time>2022-07-01T16:12:02Z</time>
      </trkpt>
      <trkpt lat="42.61917" lon="1.97491">
        <ele>2614</ele>
        <time>2022-07-01T16:12:46Z</time>
      </trkpt>
      <trkpt lat="42.61928" lon="1.97513">
        <ele>2618</ele>
        <time>2022-07-01T16:13:12Z</time>
      </trkpt>
      <trkpt lat="42.61946" lon="1.97532">
        <ele>2625</ele>
        <time>2022-07-01T16:13:43Z</time>
      </trkpt>
      <trkpt lat="42.61948" lon="1.97584">
        <ele>2630</ele>
        <time>2022-07-01T16:14:34Z</time>
      </trkpt>
      <trkpt lat="42.61961" lon="1.97607">
        <ele>2636</ele>
        <time>2022-07-01T16:15:02Z</time>
      </trkpt>
      <trkpt lat="42.61956" lon="1.97627">
        <ele>2637</ele>
        <time>2022-07-01T16:15:23Z</time>
      </trkpt>
      <trkpt lat="42.61953" lon="1.97704">
        <ele>2632</ele>
        <time>2022-07-01T16:16:39Z</time>
      </trkpt>
      <trkpt lat="42.61957" lon="1.9772">
        <ele>2630</ele>
        <time>2022-07-01T16:16:55Z</time>
      </trkpt>
      <trkpt lat="42.61966" lon="1.97728">
        <ele>2628</ele>
        <time>2022-07-01T16:17:10Z</time>
      </trkpt>
      <trkpt lat="42.61946" lon="1.97728">
        <ele>2628</ele>
        <time>2022-07-01T16:17:36Z</time>
      </trkpt>
      <trkpt lat="42.61917" lon="1.97751">
        <ele>2624</ele>
        <time>2022-07-01T16:18:21Z</time>
      </trkpt>
      <trkpt lat="42.61906" lon="1.97767">
        <ele>2618</ele>
        <time>2022-07-01T16:18:43Z</time>
      </trkpt>
      <trkpt lat="42.61887" lon="1.97783">
        <ele>2615</ele>
        <time>2022-07-01T16:19:12Z</time>
      </trkpt>
      <trkpt lat="42.61867" lon="1.97824">
        <ele>2608</ele>
        <time>2022-07-01T16:20:01Z</time>
      </trkpt>
      <trkpt lat="42.61889" lon="1.97834">
        <ele>2600</ele>
        <time>2022-07-01T16:20:32Z</time>
      </trkpt>
      <trkpt lat="42.61895" lon="1.97831">
        <ele>2599</ele>
        <time>2022-07-01T16:20:40Z</time>
      </trkpt>
      <trkpt lat="42.61897" lon="1.97856">
        <ele>2587</ele>
        <time>2022-07-01T16:21:05Z</time>
      </trkpt>
      <trkpt lat="42.61896" lon="1.9785">
        <ele>2590</ele>
        <time>2022-07-01T16:21:11Z</time>
      </trkpt>
      <trkpt lat="42.61909" lon="1.97846">
        <ele>2588</ele>
        <time>2022-07-01T16:21:29Z</time>
      </trkpt>
      <trkpt lat="42.61923" lon="1.9785">
        <ele>2582</ele>
        <time>2022-07-01T16:21:48Z</time>
      </trkpt>
      <trkpt lat="42.61912" lon="1.97851">
        <ele>2584</ele>
        <time>2022-07-01T16:22:03Z</time>
      </trkpt>
      <trkpt lat="42.61911" lon="1.97858">
        <ele>2581</ele>
        <time>2022-07-01T16:22:10Z</time>
      </trkpt>
      <trkpt lat="42.61921" lon="1.97868">
        <ele>2572</ele>
        <time>2022-07-01T16:22:26Z</time>
      </trkpt>
      <trkpt lat="42.61919" lon="1.97863">
        <ele>2575</ele>
        <time>2022-07-01T16:22:32Z</time>
      </trkpt>
      <trkpt lat="42.61912" lon="1.97868">
        <ele>2575</ele>
        <time>2022-07-01T16:22:42Z</time>
      </trkpt>
      <trkpt lat="42.6192" lon="1.9787">
        <ele>2571</ele>
        <time>2022-07-01T16:22:53Z</time>
      </trkpt>
      <trkpt lat="42.61919" lon="1.9786">
        <ele>2577</ele>
        <time>2022-07-01T16:23:03Z</time>
      </trkpt>
      <trkpt lat="42.61922" lon="1.9787">
        <ele>2570</ele>
        <time>2022-07-01T16:23:14Z</time>
      </trkpt>
      <trkpt lat="42.61936" lon="1.97878">
        <ele>2561</ele>
        <time>2022-07-01T16:23:34Z</time>
      </trkpt>
      <trkpt lat="42.61933" lon="1.9788">
        <ele>2561</ele>
        <time>2022-07-01T16:23:38Z</time>
      </trkpt>
      <trkpt lat="42.61937" lon="1.97881">
        <ele>2559</ele>
        <time>2022-07-01T16:23:44Z</time>
      </trkpt>
      <trkpt lat="42.61947" lon="1.97889">
        <ele>2551</ele>
        <time>2022-07-01T16:23:59Z</time>
      </trkpt>
      <trkpt lat="42.6194" lon="1.97925">
        <ele>2534</ele>
        <time>2022-07-01T16:24:36Z</time>
      </trkpt>
      <trkpt lat="42.61936" lon="1.97932">
        <ele>2533</ele>
        <time>2022-07-01T16:24:45Z</time>
      </trkpt>
      <trkpt lat="42.61939" lon="1.97935">
        <ele>2531</ele>
        <time>2022-07-01T16:24:50Z</time>
      </trkpt>
      <trkpt lat="42.61934" lon="1.97988">
        <ele>2518</ele>
        <time>2022-07-01T16:25:42Z</time>
      </trkpt>
      <trkpt lat="42.61937" lon="1.98042">
        <ele>2507</ele>
        <time>2022-07-01T16:26:35Z</time>
      </trkpt>
      <trkpt lat="42.61937" lon="1.98059">
        <ele>2505</ele>
        <time>2022-07-01T16:26:52Z</time>
      </trkpt>
      <trkpt lat="42.61951" lon="1.98094">
        <ele>2497</ele>
        <time>2022-07-01T16:27:31Z</time>
      </trkpt>
      <trkpt lat="42.61953" lon="1.98151">
        <ele>2492</ele>
        <time>2022-07-01T16:28:27Z</time>
      </trkpt>
      <trkpt lat="42.61961" lon="1.98164">
        <ele>2489</ele>
        <time>2022-07-01T16:28:44Z</time>
      </trkpt>
      <trkpt lat="42.61955" lon="1.98228">
        <ele>2483</ele>
        <time>2022-07-01T16:29:47Z</time>
      </trkpt>
      <trkpt lat="42.61954" lon="1.98219">
        <ele>2484</ele>
        <time>2022-07-01T16:29:56Z</time>
      </trkpt>
      <trkpt lat="42.61943" lon="1.98221">
        <ele>2486</ele>
        <time>2022-07-01T16:30:11Z</time>
      </trkpt>
      <trkpt lat="42.61952" lon="1.98219">
        <ele>2485</ele>
        <time>2022-07-01T16:30:23Z</time>
      </trkpt>
      <trkpt lat="42.61952" lon="1.98218">
        <ele>2485</ele>
        <time>2022-07-01T16:30:24Z</time>
      </trkpt>
      <trkpt lat="42.61957" lon="1.98213">
        <ele>2484</ele>
        <time>2022-07-01T16:30:32Z</time>
      </trkpt>
      <trkpt lat="42.61953" lon="1.98219">
        <ele>2484</ele>
        <time>2022-07-01T16:30:40Z</time>
      </trkpt>
      <trkpt lat="42.61957" lon="1.98309">
        <ele>2474</ele>
        <time>2022-07-01T16:32:09Z</time>
      </trkpt>
      <trkpt lat="42.61967" lon="1.98336">
        <ele>2470</ele>
        <time>2022-07-01T16:32:38Z</time>
      </trkpt>
      <trkpt lat="42.61985" lon="1.98353">
        <ele>2467</ele>
        <time>2022-07-01T16:33:08Z</time>
      </trkpt>
      <trkpt lat="42.61995" lon="1.98386">
        <ele>2463</ele>
        <time>2022-07-01T16:33:43Z</time>
      </trkpt>
      <trkpt lat="42.62002" lon="1.98461">
        <ele>2457</ele>
        <time>2022-07-01T16:34:57Z</time>
      </trkpt>
      <trkpt lat="42.62024" lon="1.98512">
        <ele>2454</ele>
        <time>2022-07-01T16:35:55Z</time>
      </trkpt>
      <trkpt lat="42.62021" lon="1.98516">
        <ele>2453</ele>
        <time>2022-07-01T16:36:01Z</time>
      </trkpt>
      <trkpt lat="42.62028" lon="1.9855">
        <ele>2450</ele>
        <time>2022-07-01T16:36:35Z</time>
      </trkpt>
      <trkpt lat="42.62062" lon="1.98598">
        <ele>2446</ele>
        <time>2022-07-01T16:37:41Z</time>
      </trkpt>
      <trkpt lat="42.62075" lon="1.98649">
        <ele>2442</ele>
        <time>2022-07-01T16:38:34Z</time>
      </trkpt>
      <trkpt lat="42.62097" lon="1.98656">
        <ele>2442</ele>
        <time>2022-07-01T16:39:04Z</time>
      </trkpt>
      <trkpt lat="42.62103" lon="1.98676">
        <ele>2440</ele>
        <time>2022-07-01T16:39:25Z</time>
      </trkpt>
      <trkpt lat="42.62109" lon="1.98677">
        <ele>2439</ele>
        <time>2022-07-01T16:39:33Z</time>
      </trkpt>
      <trkpt lat="42.62104" lon="1.98705">
        <ele>2436</ele>
        <time>2022-07-01T16:40:01Z</time>
      </trkpt>
      <trkpt lat="42.62116" lon="1.98731">
        <ele>2433</ele>
        <time>2022-07-01T16:40:32Z</time>
      </trkpt>
      <trkpt lat="42.6213" lon="1.9874">
        <ele>2432</ele>
        <time>2022-07-01T16:40:52Z</time>
      </trkpt>
      <trkpt lat="42.62131" lon="1.98756">
        <ele>2430</ele>
        <time>2022-07-01T16:41:08Z</time>
      </trkpt>
      <trkpt lat="42.62139" lon="1.98767">
        <ele>2429</ele>
        <time>2022-07-01T16:41:23Z</time>
      </trkpt>
      <trkpt lat="42.62139" lon="1.98783">
        <ele>2427</ele>
        <time>2022-07-01T16:41:39Z</time>
      </trkpt>
      <trkpt lat="42.62143" lon="1.98774">
        <ele>2428</ele>
        <time>2022-07-01T16:41:49Z</time>
      </trkpt>
      <trkpt lat="42.62136" lon="1.98786">
        <ele>2427</ele>
        <time>2022-07-01T16:42:04Z</time>
      </trkpt>
      <trkpt lat="42.62137" lon="1.98805">
        <ele>2425</ele>
        <time>2022-07-01T16:42:23Z</time>
      </trkpt>
      <trkpt lat="42.62149" lon="1.98863">
        <ele>2421</ele>
        <time>2022-07-01T16:43:22Z</time>
      </trkpt>
      <trkpt lat="42.62154" lon="1.98948">
        <ele>2413</ele>
        <time>2022-07-01T16:44:46Z</time>
      </trkpt>
      <trkpt lat="42.62163" lon="1.98993">
        <ele>2406</ele>
        <time>2022-07-01T16:45:32Z</time>
      </trkpt>
      <trkpt lat="42.6217" lon="1.99005">
        <ele>2405</ele>
        <time>2022-07-01T16:45:47Z</time>
      </trkpt>
      <trkpt lat="42.6217" lon="1.99043">
        <ele>2399</ele>
        <time>2022-07-01T16:46:24Z</time>
      </trkpt>
      <trkpt lat="42.62178" lon="1.9907">
        <ele>2396</ele>
        <time>2022-07-01T16:46:53Z</time>
      </trkpt>
      <trkpt lat="42.62195" lon="1.99103">
        <ele>2394</ele>
        <time>2022-07-01T16:47:32Z</time>
      </trkpt>
      <trkpt lat="42.62225" lon="1.99195">
        <ele>2387</ele>
        <time>2022-07-01T16:49:11Z</time>
      </trkpt>
      <trkpt lat="42.62231" lon="1.99275">
        <ele>2381</ele>
        <time>2022-07-01T16:50:30Z</time>
      </trkpt>
      <trkpt lat="42.62243" lon="1.99318">
        <ele>2377</ele>
        <time>2022-07-01T16:51:15Z</time>
      </trkpt>
      <trkpt lat="42.62241" lon="1.99336">
        <ele>2376</ele>
        <time>2022-07-01T16:51:33Z</time>
      </trkpt>
      <trkpt lat="42.62224" lon="1.99374">
        <ele>2373</ele>
        <time>2022-07-01T16:52:17Z</time>
      </trkpt>
      <trkpt lat="42.62226" lon="1.99415">
        <ele>2368</ele>
        <time>2022-07-01T16:52:57Z</time>
      </trkpt>
      <trkpt lat="42.62239" lon="1.99439">
        <ele>2367</ele>
        <time>2022-07-01T16:53:26Z</time>
      </trkpt>
      <trkpt lat="42.62236" lon="1.99456">
        <ele>2366</ele>
        <time>2022-07-01T16:53:43Z</time>
      </trkpt>
      <trkpt lat="42.62243" lon="1.99476">
        <ele>2364</ele>
        <time>2022-07-01T16:54:05Z</time>
      </trkpt>
      <trkpt lat="42.62263" lon="1.99513">
        <ele>2362</ele>
        <time>2022-07-01T16:54:50Z</time>
      </trkpt>
      <trkpt lat="42.62283" lon="1.99585">
        <ele>2351</ele>
        <time>2022-07-01T16:56:06Z</time>
      </trkpt>
      <trkpt lat="42.62305" lon="1.99613">
        <ele>2344</ele>
        <time>2022-07-01T16:56:46Z</time>
      </trkpt>
      <trkpt lat="42.62305" lon="1.99637">
        <ele>2339</ele>
        <time>2022-07-01T16:57:10Z</time>
      </trkpt>
      <trkpt lat="42.62335" lon="1.99703">
        <ele>2327</ele>
        <time>2022-07-01T16:58:26Z</time>
      </trkpt>
      <trkpt lat="42.62336" lon="1.99767">
        <ele>2321</ele>
        <time>2022-07-01T16:59:29Z</time>
      </trkpt>
      <trkpt lat="42.62353" lon="1.99832">
        <ele>2314</ele>
        <time>2022-07-01T17:00:36Z</time>
      </trkpt>
      <trkpt lat="42.62354" lon="1.99858">
        <ele>2311</ele>
        <time>2022-07-01T17:01:02Z</time>
      </trkpt>
      <trkpt lat="42.62367" lon="1.99929">
        <ele>2303</ele>
        <time>2022-07-01T17:02:14Z</time>
      </trkpt>
      <trkpt lat="42.62367" lon="1.99975">
        <ele>2301</ele>
        <time>2022-07-01T17:02:59Z</time>
      </trkpt>
      <trkpt lat="42.62374" lon="1.99988">
        <ele>2300</ele>
        <time>2022-07-01T17:03:15Z</time>
      </trkpt>
      <trkpt lat="42.62386" lon="2.00053">
        <ele>2296</ele>
        <time>2022-07-01T17:04:21Z</time>
      </trkpt>
      <trkpt lat="42.62402" lon="2.00092">
        <ele>2292</ele>
        <time>2022-07-01T17:05:04Z</time>
      </trkpt>
      <trkpt lat="42.62415" lon="2.0016">
        <ele>2283</ele>
        <time>2022-07-01T17:06:13Z</time>
      </trkpt>
      <trkpt lat="42.62419" lon="2.00172">
        <ele>2281</ele>
        <time>2022-07-01T17:06:26Z</time>
      </trkpt>
      <trkpt lat="42.62428" lon="2.00176">
        <ele>2280</ele>
        <time>2022-07-01T17:06:39Z</time>
      </trkpt>
      <trkpt lat="42.62441" lon="2.00216">
        <ele>2276</ele>
        <time>2022-07-01T17:07:22Z</time>
      </trkpt>
      <trkpt lat="42.62446" lon="2.00251">
        <ele>2273</ele>
        <time>2022-07-01T17:07:57Z</time>
      </trkpt>
      <trkpt lat="42.62439" lon="2.00285">
        <ele>2272</ele>
        <time>2022-07-01T17:08:32Z</time>
      </trkpt>
      <trkpt lat="42.62438" lon="2.00337">
        <ele>2269</ele>
        <time>2022-07-01T17:09:23Z</time>
      </trkpt>
      <trkpt lat="42.62458" lon="2.00407">
        <ele>2265</ele>
        <time>2022-07-01T17:10:36Z</time>
      </trkpt>
      <trkpt lat="42.62466" lon="2.00408">
        <ele>2265</ele>
        <time>2022-07-01T17:10:47Z</time>
      </trkpt>
      <trkpt lat="42.62454" lon="2.00415">
        <ele>2265</ele>
        <time>2022-07-01T17:11:04Z</time>
      </trkpt>
      <trkpt lat="42.62424" lon="2.00508">
        <ele>2265</ele>
        <time>2022-07-01T17:12:44Z</time>
      </trkpt>
      <trkpt lat="42.62415" lon="2.00562">
        <ele>2261</ele>
        <time>2022-07-01T17:13:39Z</time>
      </trkpt>
      <trkpt lat="42.62397" lon="2.00596">
        <ele>2262</ele>
        <time>2022-07-01T17:14:20Z</time>
      </trkpt>
      <trkpt lat="42.62398" lon="2.00609">
        <ele>2262</ele>
        <time>2022-07-01T17:14:33Z</time>
      </trkpt>
      <trkpt lat="42.62381" lon="2.0065">
        <ele>2264</ele>
        <time>2022-07-01T17:15:19Z</time>
      </trkpt>
      <trkpt lat="42.62384" lon="2.00681">
        <ele>2264</ele>
        <time>2022-07-01T17:15:49Z</time>
      </trkpt>
      <trkpt lat="42.62366" lon="2.00766">
        <ele>2262</ele>
        <time>2022-07-01T17:17:16Z</time>
      </trkpt>
      <trkpt lat="42.62359" lon="2.0077">
        <ele>2262</ele>
        <time>2022-07-01T17:17:26Z</time>
      </trkpt>
      <trkpt lat="42.62342" lon="2.00805">
        <ele>2259</ele>
        <time>2022-07-01T17:18:08Z</time>
      </trkpt>
      <trkpt lat="42.6232" lon="2.00828">
        <ele>2256</ele>
        <time>2022-07-01T17:18:45Z</time>
      </trkpt>
      <trkpt lat="42.62313" lon="2.0087">
        <ele>2253</ele>
        <time>2022-07-01T17:19:27Z</time>
      </trkpt>
      <trkpt lat="42.62302" lon="2.00907">
        <ele>2250</ele>
        <time>2022-07-01T17:20:06Z</time>
      </trkpt>
      <trkpt lat="42.62316" lon="2.00953">
        <ele>2250</ele>
        <time>2022-07-01T17:20:55Z</time>
      </trkpt>
      <trkpt lat="42.62316" lon="2.00984">
        <ele>2250</ele>
        <time>2022-07-01T17:21:25Z</time>
      </trkpt>
      <trkpt lat="42.6233" lon="2.01014">
        <ele>2252</ele>
        <time>2022-07-01T17:22:00Z</time>
      </trkpt>
      <trkpt lat="42.62336" lon="2.01017">
        <ele>2252</ele>
        <time>2022-07-01T17:22:09Z</time>
      </trkpt>
      <trkpt lat="42.62339" lon="2.01061">
        <ele>2256</ele>
        <time>2022-07-01T17:22:52Z</time>
      </trkpt>
      <trkpt lat="42.62317" lon="2.01091">
        <ele>2257</ele>
        <time>2022-07-01T17:23:34Z</time>
      </trkpt>
      <trkpt lat="42.62294" lon="2.01094">
        <ele>2255</ele>
        <time>2022-07-01T17:24:05Z</time>
      </trkpt>
      <trkpt lat="42.62276" lon="2.01087">
        <ele>2252</ele>
        <time>2022-07-01T17:24:30Z</time>
      </trkpt>
      <trkpt lat="42.62255" lon="2.01097">
        <ele>2251</ele>
        <time>2022-07-01T17:24:59Z</time>
      </trkpt>
      <trkpt lat="42.62225" lon="2.01086">
        <ele>2248</ele>
        <time>2022-07-01T17:25:41Z</time>
      </trkpt>
      <trkpt lat="42.62209" lon="2.01089">
        <ele>2247</ele>
        <time>2022-07-01T17:26:02Z</time>
      </trkpt>
    </trkseg>
  </trk>
</gpx>